createdAt,value
2022-08-28T00:00:12.392Z,75.94
2022-08-28T00:00:25.726Z,76.16
2022-08-28T00:00:39.671Z,76.01
2022-08-28T00:00:51.629Z,76.52
2022-08-28T00:01:04.223Z,76.66
2022-08-28T00:01:16.405Z,76.40
2022-08-28T00:01:28.352Z,76.22
2022-08-28T00:01:40.355Z,76.16
2022-08-28T00:01:52.315Z,76.32
2022-08-28T00:02:04.564Z,76.63
2022-08-28T00:02:16.858Z,76.54
2022-08-28T00:02:28.866Z,76.04
2022-08-28T00:02:41.295Z,76.46
2022-08-28T00:02:53.991Z,76.27
2022-08-28T00:03:06.882Z,76.04
2022-08-28T00:03:19.611Z,76.21
2022-08-28T00:03:32.389Z,76.03
2022-08-28T00:03:44.591Z,75.96
2022-08-28T00:03:57.872Z,76.38
2022-08-28T00:04:09.789Z,76.53
2022-08-28T00:04:21.892Z,76.76
2022-08-28T00:04:34.446Z,76.37
2022-08-28T00:04:46.619Z,76.25
2022-08-28T00:04:58.768Z,76.74
2022-08-28T00:05:11.610Z,76.69
2022-08-28T00:05:26.096Z,76.37
2022-08-28T00:05:41.650Z,76.05
2022-08-28T00:05:53.739Z,76.22
2022-08-28T00:06:06.013Z,76.63
2022-08-28T00:06:18.791Z,76.23
2022-08-28T00:06:30.817Z,76.69
2022-08-28T00:06:42.747Z,76.25
2022-08-28T00:06:54.748Z,76.60
2022-08-28T00:07:06.672Z,76.39
2022-08-28T00:07:19.334Z,76.41
2022-08-28T00:07:31.436Z,76.84
2022-08-28T00:07:47.685Z,76.30
2022-08-28T00:08:00.876Z,77.00
2022-08-28T00:08:15.268Z,76.62
2022-08-28T00:08:27.376Z,76.77
2022-08-28T00:08:39.355Z,76.69
2022-08-28T00:08:51.459Z,77.07
2022-08-28T00:09:04.444Z,77.05
2022-08-28T00:09:16.423Z,77.21
2022-08-28T00:09:28.369Z,77.18
2022-08-28T00:09:40.476Z,76.96
2022-08-28T00:09:52.435Z,76.90
2022-08-28T00:10:05.860Z,76.89
2022-08-28T00:10:20.639Z,76.98
2022-08-28T00:10:34.728Z,76.89
2022-08-28T00:10:47.247Z,76.60
2022-08-28T00:10:59.820Z,76.57
2022-08-28T00:11:11.999Z,76.69
2022-08-28T00:11:24.062Z,76.52
2022-08-28T00:11:38.602Z,77.01
2022-08-28T00:11:50.577Z,76.69
2022-08-28T00:12:02.922Z,77.00
2022-08-28T00:12:14.875Z,77.18
2022-08-28T00:12:27.141Z,77.30
2022-08-28T00:12:39.800Z,77.32
2022-08-28T00:12:55.679Z,77.18
2022-08-28T00:13:13.743Z,77.53
2022-08-28T00:13:26.886Z,77.03
2022-08-28T00:13:39.024Z,77.16
2022-08-28T00:13:51.586Z,77.37
2022-08-28T00:14:07.932Z,77.43
2022-08-28T00:14:21.086Z,76.98
2022-08-28T00:14:33.075Z,77.27
2022-08-28T00:14:45.030Z,77.43
2022-08-28T00:14:57.376Z,77.43
2022-08-28T00:15:15.148Z,77.32
2022-08-28T00:15:38.851Z,77.17
2022-08-28T00:15:54.549Z,77.77
2022-08-28T00:16:07.061Z,77.83
2022-08-28T00:16:19.143Z,77.74
2022-08-28T00:16:31.456Z,77.51
2022-08-28T00:16:43.429Z,77.65
2022-08-28T00:16:55.442Z,77.80
2022-08-28T00:17:07.441Z,78.18
2022-08-28T00:17:19.393Z,78.31
2022-08-28T00:17:31.306Z,78.11
2022-08-28T00:17:43.518Z,77.91
2022-08-28T00:17:55.894Z,78.16
2022-08-28T00:18:08.630Z,78.11
2022-08-28T00:18:21.251Z,78.23
2022-08-28T00:18:34.238Z,78.21
2022-08-28T00:18:47.119Z,78.28
2022-08-28T00:18:59.619Z,78.45
2022-08-28T00:19:11.779Z,78.53
2022-08-28T00:19:24.319Z,78.16
2022-08-28T00:19:38.656Z,78.39
2022-08-28T00:19:51.195Z,78.06
2022-08-28T00:20:05.244Z,78.21
2022-08-28T00:20:20.638Z,78.38
2022-08-28T00:20:34.022Z,78.60
2022-08-28T00:20:47.263Z,78.28
2022-08-28T00:20:59.933Z,78.09
2022-08-28T00:21:12.653Z,78.48
2022-08-28T00:21:25.193Z,78.69
2022-08-28T00:21:37.494Z,78.33
2022-08-28T00:21:50.435Z,78.04
2022-08-28T00:22:04.144Z,78.25
2022-08-28T00:22:16.452Z,78.05
2022-08-28T00:22:28.411Z,78.20
2022-08-28T00:22:41.501Z,77.92
2022-08-28T00:22:55.459Z,78.19
2022-08-28T00:23:07.629Z,78.17
2022-08-28T00:23:20.060Z,78.36
2022-08-28T00:23:42.417Z,78.12
2022-08-28T00:23:55.712Z,78.11
2022-08-28T00:24:11.141Z,77.76
2022-08-28T00:24:23.229Z,78.08
2022-08-28T00:24:36.093Z,78.05
2022-08-28T00:24:48.133Z,77.81
2022-08-28T00:25:00.109Z,77.96
2022-08-28T00:25:13.335Z,78.22
2022-08-28T00:25:27.741Z,78.20
2022-08-28T00:25:39.697Z,78.14
2022-08-28T00:25:52.556Z,77.85
2022-08-28T00:26:04.515Z,78.05
2022-08-28T00:26:36.815Z,78.15
2022-08-28T00:27:07.202Z,78.17
2022-08-28T00:27:37.536Z,78.21
2022-08-28T00:27:54.934Z,77.95
2022-08-28T00:28:10.997Z,77.95
2022-08-28T00:28:36.031Z,77.79
2022-08-28T00:28:47.967Z,77.79
2022-08-28T00:28:59.971Z,78.31
2022-08-28T00:29:12.019Z,78.13
2022-08-28T00:29:24.295Z,78.05
2022-08-28T00:29:36.342Z,78.02
2022-08-28T00:29:48.316Z,78.16
2022-08-28T00:30:00.254Z,78.19
2022-08-28T00:30:12.681Z,78.00
2022-08-28T00:30:29.792Z,77.75
2022-08-28T00:30:48.328Z,77.91
2022-08-28T00:31:01.798Z,77.93
2022-08-28T00:31:13.886Z,77.83
2022-08-28T00:31:25.940Z,77.80
2022-08-28T00:31:41.202Z,77.90
2022-08-28T00:31:53.258Z,78.30
2022-08-28T00:32:05.758Z,77.94
2022-08-28T00:32:17.878Z,78.00
2022-08-28T00:32:29.874Z,78.34
2022-08-28T00:32:41.856Z,78.01
2022-08-28T00:32:57.052Z,78.08
2022-08-28T00:33:18.331Z,78.17
2022-08-28T00:33:33.226Z,78.20
2022-08-28T00:33:47.520Z,78.47
2022-08-28T00:34:02.598Z,78.52
2022-08-28T00:34:14.698Z,78.67
2022-08-28T00:34:33.006Z,78.47
2022-08-28T00:34:45.208Z,78.59
2022-08-28T00:34:57.803Z,78.41
2022-08-28T00:35:09.804Z,79.06
2022-08-28T00:35:23.271Z,78.98
2022-08-28T00:35:35.289Z,78.61
2022-08-28T00:35:48.069Z,78.72
2022-08-28T00:36:01.555Z,78.45
2022-08-28T00:36:13.491Z,78.84
2022-08-28T00:36:25.466Z,78.78
2022-08-28T00:36:38.668Z,78.00
2022-08-28T00:36:50.688Z,78.51
2022-08-28T00:37:03.577Z,78.14
2022-08-28T00:37:16.097Z,78.08
2022-08-28T00:37:28.351Z,78.22
2022-08-28T00:37:40.323Z,77.74
2022-08-28T00:37:54.847Z,77.79
2022-08-28T00:38:09.180Z,77.58
2022-08-28T00:38:23.417Z,77.69
2022-08-28T00:38:37.646Z,77.87
2022-08-28T00:38:50.467Z,77.70
2022-08-28T00:39:04.221Z,77.61
2022-08-28T00:39:16.470Z,77.40
2022-08-28T00:39:32.147Z,77.54
2022-08-28T00:39:44.620Z,77.66
2022-08-28T00:39:56.802Z,77.89
2022-08-28T00:40:10.149Z,78.14
2022-08-28T00:40:28.755Z,78.25
2022-08-28T00:40:45.768Z,77.98
2022-08-28T00:41:01.760Z,78.07
2022-08-28T00:41:16.602Z,77.73
2022-08-28T00:41:38.991Z,77.91
2022-08-28T00:41:56.637Z,77.75
2022-08-28T00:42:10.265Z,78.10
2022-08-28T00:42:22.206Z,78.16
2022-08-28T00:42:35.123Z,77.82
2022-08-28T00:42:48.105Z,77.81
2022-08-28T00:43:05.100Z,77.57
2022-08-28T00:43:38.416Z,77.71
2022-08-28T00:43:50.467Z,77.63
2022-08-28T00:44:10.167Z,77.84
2022-08-28T00:44:24.275Z,78.09
2022-08-28T00:44:36.755Z,77.99
2022-08-28T00:44:48.752Z,77.92
2022-08-28T00:45:01.063Z,78.06
2022-08-28T00:45:15.183Z,78.28
2022-08-28T00:45:28.123Z,78.45
2022-08-28T00:45:40.424Z,78.47
2022-08-28T00:45:53.290Z,78.59
2022-08-28T00:46:10.507Z,77.94
2022-08-28T00:46:24.070Z,77.90
2022-08-28T00:46:38.367Z,77.80
2022-08-28T00:46:52.244Z,77.96
2022-08-28T00:47:04.275Z,77.68
2022-08-28T00:47:16.233Z,77.80
2022-08-28T00:47:28.294Z,77.94
2022-08-28T00:47:40.981Z,77.60
2022-08-28T00:47:53.155Z,77.91
2022-08-28T00:48:05.384Z,77.74
2022-08-28T00:48:17.437Z,77.44
2022-08-28T00:48:29.606Z,77.50
2022-08-28T00:48:41.760Z,77.91
2022-08-28T00:48:53.767Z,77.49
2022-08-28T00:49:06.679Z,77.58
2022-08-28T00:49:23.752Z,77.65
2022-08-28T00:49:41.090Z,77.97
2022-08-28T00:49:54.934Z,77.61
2022-08-28T00:50:10.455Z,77.96
2022-08-28T00:50:26.995Z,77.69
2022-08-28T00:51:00.579Z,77.90
2022-08-28T00:51:34.336Z,77.98
2022-08-28T00:52:08.058Z,78.18
2022-08-28T00:52:24.138Z,77.98
2022-08-28T00:52:37.030Z,78.16
2022-08-28T00:52:53.139Z,78.08
2022-08-28T00:53:05.099Z,78.52
2022-08-28T00:53:17.180Z,78.50
2022-08-28T00:53:32.874Z,78.27
2022-08-28T00:53:45.268Z,78.20
2022-08-28T00:53:59.326Z,78.53
2022-08-28T00:54:11.999Z,78.71
2022-08-28T00:54:25.486Z,78.54
2022-08-28T00:55:02.981Z,78.56
2022-08-28T00:55:22.380Z,78.21
2022-08-28T00:55:34.916Z,78.22
2022-08-28T00:55:47.242Z,78.24
2022-08-28T00:55:59.243Z,78.36
2022-08-28T00:56:13.662Z,78.66
2022-08-28T00:56:26.297Z,78.30
2022-08-28T00:56:40.603Z,78.61
2022-08-28T00:56:54.907Z,78.44
2022-08-28T00:57:11.042Z,78.49
2022-08-28T00:57:28.621Z,78.69
2022-08-28T00:57:44.836Z,78.56
2022-08-28T00:58:02.383Z,78.37
2022-08-28T00:58:14.706Z,78.64
2022-08-28T00:58:26.818Z,78.58
2022-08-28T00:58:40.092Z,78.75
2022-08-28T00:58:54.553Z,78.56
2022-08-28T00:59:15.465Z,78.78
2022-08-28T00:59:27.738Z,78.65
2022-08-28T00:59:39.723Z,78.94
2022-08-28T00:59:52.043Z,78.99
2022-08-28T01:00:08.741Z,78.62
2022-08-28T01:00:33.937Z,78.81
2022-08-28T01:00:46.126Z,79.01
2022-08-28T01:00:59.138Z,79.39
2022-08-28T01:01:14.566Z,79.14
2022-08-28T01:01:26.686Z,79.15
2022-08-28T01:01:39.190Z,79.56
2022-08-28T01:01:55.926Z,79.44
2022-08-28T01:02:08.467Z,79.84
2022-08-28T01:02:21.287Z,79.98
2022-08-28T01:02:33.449Z,79.89
2022-08-28T01:02:46.138Z,79.84
2022-08-28T01:02:58.867Z,80.08
2022-08-28T01:03:11.243Z,79.99
2022-08-28T01:03:25.137Z,79.84
2022-08-28T01:03:38.522Z,79.55
2022-08-28T01:03:50.636Z,80.08
2022-08-28T01:04:06.092Z,79.76
2022-08-28T01:04:20.208Z,79.93
2022-08-28T01:04:33.547Z,79.74
2022-08-28T01:04:49.615Z,79.94
2022-08-28T01:05:01.830Z,79.40
2022-08-28T01:05:15.645Z,79.69
2022-08-28T01:05:28.892Z,80.04
2022-08-28T01:05:43.522Z,79.91
2022-08-28T01:05:55.802Z,80.09
2022-08-28T01:06:10.135Z,79.85
2022-08-28T01:06:22.127Z,79.72
2022-08-28T01:06:36.201Z,80.15
2022-08-28T01:06:53.456Z,79.81
2022-08-28T01:07:12.778Z,79.70
2022-08-28T01:07:24.896Z,79.94
2022-08-28T01:07:38.202Z,79.59
2022-08-28T01:07:50.918Z,79.67
2022-08-28T01:08:04.367Z,79.57
2022-08-28T01:08:18.609Z,79.44
2022-08-28T01:08:31.262Z,79.49
2022-08-28T01:08:46.163Z,79.48
2022-08-28T01:09:04.431Z,79.20
2022-08-28T01:09:20.922Z,79.20
2022-08-28T01:09:34.606Z,79.43
2022-08-28T01:09:50.972Z,79.10
2022-08-28T01:10:05.531Z,79.23
2022-08-28T01:10:22.114Z,79.03
2022-08-28T01:10:34.886Z,79.42
2022-08-28T01:10:50.338Z,79.19
2022-08-28T01:11:06.123Z,79.06
2022-08-28T01:11:19.851Z,79.25
2022-08-28T01:11:33.114Z,79.22
2022-08-28T01:11:47.415Z,79.01
2022-08-28T01:12:08.473Z,79.16
2022-08-28T01:12:27.139Z,78.87
2022-08-28T01:12:39.209Z,79.11
2022-08-28T01:12:56.175Z,79.27
2022-08-28T01:13:08.429Z,79.29
2022-08-28T01:13:20.872Z,79.12
2022-08-28T01:13:33.298Z,79.14
2022-08-28T01:13:48.379Z,79.26
2022-08-28T01:14:02.892Z,79.48
2022-08-28T01:14:18.259Z,79.56
2022-08-28T01:14:33.766Z,79.56
2022-08-28T01:14:49.197Z,79.35
2022-08-28T01:15:11.792Z,79.36
2022-08-28T01:15:29.659Z,79.24
2022-08-28T01:15:42.922Z,79.36
2022-08-28T01:15:55.966Z,79.45
2022-08-28T01:16:08.924Z,78.98
2022-08-28T01:16:22.519Z,79.37
2022-08-28T01:16:37.564Z,79.50
2022-08-28T01:16:55.357Z,79.30
2022-08-28T01:17:09.692Z,79.52
2022-08-28T01:17:24.446Z,79.29
2022-08-28T01:17:36.907Z,79.45
2022-08-28T01:18:02.559Z,79.45
2022-08-28T01:18:17.816Z,79.79
2022-08-28T01:18:32.298Z,79.85
2022-08-28T01:18:46.109Z,79.50
2022-08-28T01:19:00.460Z,79.74
2022-08-28T01:19:31.411Z,80.05
2022-08-28T01:19:48.242Z,80.09
2022-08-28T01:20:09.392Z,80.10
2022-08-28T01:20:28.581Z,80.09
2022-08-28T01:20:48.476Z,80.10
2022-08-28T01:21:03.218Z,80.27
2022-08-28T01:21:30.768Z,80.03
2022-08-28T01:21:48.744Z,80.25
2022-08-28T01:22:12.876Z,80.36
2022-08-28T01:22:37.319Z,79.91
2022-08-28T01:23:09.763Z,80.07
2022-08-28T01:23:44.366Z,80.10
2022-08-28T01:24:14.689Z,80.40
2022-08-28T01:24:27.342Z,80.15
2022-08-28T01:24:40.413Z,80.01
2022-08-28T01:24:55.898Z,80.16
2022-08-28T01:25:13.109Z,79.90
2022-08-28T01:25:30.402Z,79.74
2022-08-28T01:25:42.844Z,80.24
2022-08-28T01:25:54.971Z,80.02
2022-08-28T01:26:10.722Z,80.18
2022-08-28T01:26:25.880Z,80.21
2022-08-28T01:26:38.536Z,80.16
2022-08-28T01:26:50.518Z,80.21
2022-08-28T01:27:02.502Z,80.42
2022-08-28T01:27:14.495Z,80.52
2022-08-28T01:27:26.897Z,80.85
2022-08-28T01:27:41.804Z,80.58
2022-08-28T01:27:53.852Z,80.46
2022-08-28T01:28:08.987Z,80.56
2022-08-28T01:28:21.106Z,80.65
2022-08-28T01:28:33.667Z,80.34
2022-08-28T01:28:46.139Z,80.19
2022-08-28T01:28:59.818Z,80.16
2022-08-28T01:29:12.374Z,80.38
2022-08-28T01:29:25.058Z,80.46
2022-08-28T01:29:37.227Z,80.40
2022-08-28T01:29:50.323Z,80.54
2022-08-28T01:30:03.503Z,80.08
2022-08-28T01:30:19.538Z,79.99
2022-08-28T01:30:32.363Z,80.14
2022-08-28T01:30:47.647Z,80.08
2022-08-28T01:30:59.755Z,80.29
2022-08-28T01:31:14.066Z,80.24
2022-08-28T01:31:28.964Z,80.43
2022-08-28T01:31:41.995Z,80.49
2022-08-28T01:31:54.286Z,80.17
2022-08-28T01:32:06.256Z,80.48
2022-08-28T01:32:41.797Z,80.33
2022-08-28T01:32:55.882Z,80.20
2022-08-28T01:33:08.715Z,80.26
2022-08-28T01:33:24.293Z,80.01
2022-08-28T01:33:42.346Z,80.28
2022-08-28T01:33:54.931Z,80.49
2022-08-28T01:34:08.900Z,80.37
2022-08-28T01:34:21.155Z,80.38
2022-08-28T01:34:34.256Z,80.16
2022-08-28T01:34:46.194Z,80.22
2022-08-28T01:34:59.138Z,80.03
2022-08-28T01:35:15.039Z,80.21
2022-08-28T01:35:31.582Z,79.81
2022-08-28T01:35:47.449Z,79.94
2022-08-28T01:35:59.417Z,79.58
2022-08-28T01:36:13.313Z,79.79
2022-08-28T01:36:25.891Z,79.69
2022-08-28T01:36:37.938Z,79.76
2022-08-28T01:36:49.902Z,79.65
2022-08-28T01:37:03.737Z,79.30
2022-08-28T01:37:15.783Z,79.50
2022-08-28T01:37:28.483Z,79.10
2022-08-28T01:37:41.447Z,79.49
2022-08-28T01:37:55.742Z,79.23
2022-08-28T01:38:08.044Z,79.41
2022-08-28T01:38:21.969Z,79.42
2022-08-28T01:38:41.319Z,79.07
2022-08-28T01:38:58.958Z,79.43
2022-08-28T01:39:19.903Z,79.20
2022-08-28T01:39:31.891Z,79.44
2022-08-28T01:39:43.839Z,79.02
2022-08-28T01:39:55.858Z,79.28
2022-08-28T01:40:10.091Z,78.87
2022-08-28T01:40:32.038Z,78.87
2022-08-28T01:40:48.097Z,78.69
2022-08-28T01:41:00.315Z,78.80
2022-08-28T01:41:13.960Z,78.83
2022-08-28T01:41:25.945Z,79.22
2022-08-28T01:41:42.327Z,78.72
2022-08-28T01:41:55.475Z,79.11
2022-08-28T01:42:07.449Z,78.82
2022-08-28T01:42:19.571Z,78.73
2022-08-28T01:42:37.168Z,78.67
2022-08-28T01:42:50.186Z,78.61
2022-08-28T01:43:20.557Z,78.82
2022-08-28T01:43:32.626Z,78.71
2022-08-28T01:43:45.147Z,78.49
2022-08-28T01:43:57.443Z,78.52
2022-08-28T01:44:09.734Z,78.19
2022-08-28T01:44:25.691Z,78.11
2022-08-28T01:44:38.004Z,78.04
2022-08-28T01:44:50.210Z,78.48
2022-08-28T01:45:02.140Z,78.21
2022-08-28T01:45:16.279Z,78.23
2022-08-28T01:45:28.359Z,78.27
2022-08-28T01:45:44.133Z,78.43
2022-08-28T01:46:01.823Z,77.72
2022-08-28T01:46:14.197Z,77.93
2022-08-28T01:46:26.199Z,77.81
2022-08-28T01:46:41.818Z,77.62
2022-08-28T01:46:56.370Z,77.72
2022-08-28T01:47:08.378Z,77.69
2022-08-28T01:47:21.575Z,77.46
2022-08-28T01:47:33.575Z,77.45
2022-08-28T01:47:47.339Z,77.57
2022-08-28T01:47:59.302Z,77.46
2022-08-28T01:48:13.126Z,77.63
2022-08-28T01:48:26.370Z,77.53
2022-08-28T01:48:42.980Z,77.57
2022-08-28T01:48:55.182Z,77.21
2022-08-28T01:49:11.919Z,77.63
2022-08-28T01:49:25.233Z,77.25
2022-08-28T01:49:37.379Z,77.35
2022-08-28T01:49:49.327Z,77.34
2022-08-28T01:50:01.319Z,77.74
2022-08-28T01:50:17.142Z,77.79
2022-08-28T01:50:29.255Z,77.92
2022-08-28T01:50:42.503Z,78.34
2022-08-28T01:50:55.325Z,77.96
2022-08-28T01:51:08.268Z,78.26
2022-08-28T01:51:24.352Z,78.34
2022-08-28T01:51:38.263Z,78.39
2022-08-28T01:51:50.627Z,78.04
2022-08-28T01:52:04.731Z,78.36
2022-08-28T01:52:16.675Z,78.40
2022-08-28T01:52:28.909Z,78.26
2022-08-28T01:52:41.623Z,78.19
2022-08-28T01:52:55.035Z,77.87
2022-08-28T01:53:11.948Z,78.08
2022-08-28T01:53:32.138Z,77.95
2022-08-28T01:53:46.545Z,77.42
2022-08-28T01:53:58.715Z,77.71
2022-08-28T01:54:12.015Z,77.40
2022-08-28T01:54:25.762Z,77.09
2022-08-28T01:54:38.048Z,77.82
2022-08-28T01:54:51.027Z,77.76
2022-08-28T01:55:06.551Z,77.63
2022-08-28T01:55:21.451Z,77.91
2022-08-28T01:55:35.990Z,77.81
2022-08-28T01:55:50.047Z,78.07
2022-08-28T01:56:05.167Z,77.83
2022-08-28T01:56:17.668Z,77.90
2022-08-28T01:56:29.853Z,78.09
2022-08-28T01:56:44.214Z,78.09
2022-08-28T01:56:56.276Z,78.20
2022-08-28T01:57:08.236Z,77.88
2022-08-28T01:57:20.190Z,77.73
2022-08-28T01:57:35.954Z,77.94
2022-08-28T01:57:52.944Z,77.68
2022-08-28T01:58:06.787Z,77.92
2022-08-28T01:58:19.170Z,78.22
2022-08-28T01:58:36.041Z,78.13
2022-08-28T01:58:50.050Z,77.83
2022-08-28T01:59:05.369Z,78.15
2022-08-28T01:59:17.581Z,78.30
2022-08-28T01:59:29.770Z,78.00
2022-08-28T01:59:41.843Z,78.26
2022-08-28T01:59:54.773Z,78.34
2022-08-28T02:00:07.481Z,78.14
2022-08-28T02:00:20.062Z,78.55
2022-08-28T02:00:32.108Z,78.20
2022-08-28T02:00:44.365Z,78.31
2022-08-28T02:00:57.366Z,78.24
2022-08-28T02:01:15.243Z,77.92
2022-08-28T02:01:27.275Z,78.22
2022-08-28T02:01:40.202Z,77.87
2022-08-28T02:01:55.222Z,78.26
2022-08-28T02:02:07.479Z,77.85
2022-08-28T02:02:19.568Z,77.97
2022-08-28T02:02:31.714Z,78.37
2022-08-28T02:02:43.747Z,78.25
2022-08-28T02:02:57.810Z,78.06
2022-08-28T02:03:10.146Z,77.91
2022-08-28T02:03:23.553Z,78.17
2022-08-28T02:03:35.535Z,77.97
2022-08-28T02:03:49.131Z,78.04
2022-08-28T02:04:01.210Z,78.04
2022-08-28T02:04:14.249Z,78.07
2022-08-28T02:04:32.255Z,78.20
2022-08-28T02:04:48.012Z,77.87
2022-08-28T02:05:00.196Z,78.13
2022-08-28T02:05:12.226Z,77.65
2022-08-28T02:05:27.303Z,77.72
2022-08-28T02:05:39.952Z,78.05
2022-08-28T02:05:52.001Z,77.70
2022-08-28T02:06:04.703Z,77.92
2022-08-28T02:06:17.727Z,77.93
2022-08-28T02:06:30.427Z,77.70
2022-08-28T02:06:42.411Z,77.84
2022-08-28T02:06:54.338Z,77.55
2022-08-28T02:07:06.247Z,77.89
2022-08-28T02:07:18.321Z,77.52
2022-08-28T02:07:30.254Z,77.55
2022-08-28T02:07:42.176Z,77.75
2022-08-28T02:07:54.115Z,77.36
2022-08-28T02:08:07.667Z,77.42
2022-08-28T02:08:20.425Z,77.67
2022-08-28T02:08:32.588Z,77.59
2022-08-28T02:08:45.865Z,77.74
2022-08-28T02:08:59.406Z,77.54
2022-08-28T02:09:14.723Z,77.82
2022-08-28T02:09:26.908Z,77.57
2022-08-28T02:09:38.867Z,77.32
2022-08-28T02:09:51.635Z,77.75
2022-08-28T02:10:05.710Z,77.28
2022-08-28T02:10:18.571Z,77.36
2022-08-28T02:10:33.185Z,77.46
2022-08-28T02:10:45.315Z,77.42
2022-08-28T02:10:57.275Z,77.62
2022-08-28T02:11:10.271Z,77.59
2022-08-28T02:11:24.143Z,77.26
2022-08-28T02:11:36.082Z,77.03
2022-08-28T02:11:47.995Z,77.33
2022-08-28T02:11:59.951Z,77.56
2022-08-28T02:12:11.971Z,77.73
2022-08-28T02:12:25.019Z,77.13
2022-08-28T02:12:36.954Z,77.16
2022-08-28T02:12:49.302Z,77.16
2022-08-28T02:13:02.292Z,77.00
2022-08-28T02:13:14.537Z,77.41
2022-08-28T02:13:26.896Z,77.75
2022-08-28T02:13:40.504Z,77.53
2022-08-28T02:13:54.302Z,77.53
2022-08-28T02:14:08.255Z,77.39
2022-08-28T02:14:20.605Z,77.35
2022-08-28T02:14:32.728Z,76.93
2022-08-28T02:14:44.660Z,77.41
2022-08-28T02:14:56.627Z,77.44
2022-08-28T02:15:08.986Z,77.23
2022-08-28T02:15:23.637Z,77.19
2022-08-28T02:15:37.070Z,77.48
2022-08-28T02:15:49.070Z,77.19
2022-08-28T02:16:01.287Z,77.21
2022-08-28T02:16:13.421Z,77.26
2022-08-28T02:16:25.963Z,77.36
2022-08-28T02:16:37.991Z,77.39
2022-08-28T02:16:50.124Z,77.16
2022-08-28T02:17:02.536Z,77.10
2022-08-28T02:17:14.624Z,77.57
2022-08-28T02:17:26.550Z,77.63
2022-08-28T02:17:38.851Z,77.21
2022-08-28T02:17:51.386Z,77.60
2022-08-28T02:18:04.651Z,77.58
2022-08-28T02:18:17.235Z,77.55
2022-08-28T02:18:29.228Z,77.35
2022-08-28T02:18:41.854Z,77.64
2022-08-28T02:18:53.803Z,77.19
2022-08-28T02:19:06.067Z,77.44
2022-08-28T02:19:18.042Z,77.79
2022-08-28T02:19:30.476Z,77.08
2022-08-28T02:19:42.495Z,77.13
2022-08-28T02:19:54.503Z,77.38
2022-08-28T02:20:07.443Z,77.24
2022-08-28T02:20:19.426Z,77.39
2022-08-28T02:20:33.399Z,77.23
2022-08-28T02:20:45.386Z,77.16
2022-08-28T02:20:57.328Z,77.40
2022-08-28T02:21:10.588Z,77.28
2022-08-28T02:21:22.695Z,76.88
2022-08-28T02:21:35.516Z,76.99
2022-08-28T02:21:47.439Z,76.74
2022-08-28T02:21:59.512Z,76.90
2022-08-28T02:22:13.359Z,76.98
2022-08-28T02:22:25.607Z,77.25
2022-08-28T02:22:37.655Z,77.01
2022-08-28T02:22:50.234Z,77.30
2022-08-28T02:23:02.275Z,77.34
2022-08-28T02:23:14.663Z,77.37
2022-08-28T02:23:27.234Z,77.03
2022-08-28T02:23:41.851Z,77.09
2022-08-28T02:23:53.780Z,77.17
2022-08-28T02:24:05.906Z,77.11
2022-08-28T02:24:18.344Z,77.06
2022-08-28T02:24:30.340Z,76.83
2022-08-28T02:24:42.289Z,77.32
2022-08-28T02:24:54.293Z,77.07
2022-08-28T02:25:08.091Z,76.97
2022-08-28T02:25:20.097Z,76.89
2022-08-28T02:25:32.210Z,77.22
2022-08-28T02:25:44.148Z,76.89
2022-08-28T02:25:56.095Z,77.18
2022-08-28T02:26:09.703Z,76.98
2022-08-28T02:26:21.870Z,77.04
2022-08-28T02:26:33.827Z,77.17
2022-08-28T02:26:46.838Z,76.93
2022-08-28T02:26:58.822Z,77.11
2022-08-28T02:27:10.805Z,76.71
2022-08-28T02:27:22.783Z,76.71
2022-08-28T02:27:36.577Z,76.91
2022-08-28T02:27:49.100Z,76.65
2022-08-28T02:28:01.209Z,76.52
2022-08-28T02:28:13.251Z,76.43
2022-08-28T02:28:25.373Z,76.81
2022-08-28T02:28:37.658Z,76.36
2022-08-28T02:28:49.923Z,76.32
2022-08-28T02:29:01.891Z,76.71
2022-08-28T02:29:13.880Z,76.67
2022-08-28T02:29:27.145Z,76.64
2022-08-28T02:29:39.248Z,76.52
2022-08-28T02:29:51.334Z,76.29
2022-08-28T02:30:04.803Z,76.18
2022-08-28T02:30:17.305Z,76.33
2022-08-28T02:30:29.538Z,76.07
2022-08-28T02:30:41.531Z,76.58
2022-08-28T02:30:53.678Z,76.45
2022-08-28T02:31:09.205Z,76.58
2022-08-28T02:31:21.309Z,76.36
2022-08-28T02:31:33.299Z,76.34
2022-08-28T02:31:45.240Z,76.70
2022-08-28T02:31:57.253Z,76.77
2022-08-28T02:32:09.198Z,76.69
2022-08-28T02:32:21.668Z,76.37
2022-08-28T02:32:33.747Z,76.74
2022-08-28T02:32:46.592Z,76.62
2022-08-28T02:32:58.576Z,76.60
2022-08-28T02:33:10.526Z,76.52
2022-08-28T02:33:22.515Z,76.43
2022-08-28T02:33:37.547Z,76.16
2022-08-28T02:33:49.703Z,76.31
2022-08-28T02:34:01.850Z,76.39
2022-08-28T02:34:13.809Z,76.60
2022-08-28T02:34:25.800Z,76.83
2022-08-28T02:34:37.942Z,76.92
2022-08-28T02:34:49.899Z,77.05
2022-08-28T02:35:01.946Z,77.33
2022-08-28T02:35:16.633Z,76.98
2022-08-28T02:35:28.582Z,77.28
2022-08-28T02:35:42.785Z,77.57
2022-08-28T02:35:55.154Z,77.53
2022-08-28T02:36:08.970Z,77.32
2022-08-28T02:36:20.909Z,76.96
2022-08-28T02:36:33.729Z,77.10
2022-08-28T02:36:45.647Z,77.05
2022-08-28T02:36:57.600Z,77.18
2022-08-28T02:37:13.139Z,77.26
2022-08-28T02:37:25.119Z,77.14
2022-08-28T02:37:37.220Z,77.13
2022-08-28T02:37:49.894Z,76.88
2022-08-28T02:38:02.682Z,77.15
2022-08-28T02:38:15.262Z,76.96
2022-08-28T02:38:27.312Z,76.71
2022-08-28T02:38:39.295Z,76.83
2022-08-28T02:38:57.429Z,76.50
2022-08-28T02:39:10.772Z,76.71
2022-08-28T02:39:22.706Z,76.64
2022-08-28T02:39:34.924Z,76.86
2022-08-28T02:39:47.511Z,76.88
2022-08-28T02:40:00.224Z,77.22
2022-08-28T02:40:16.350Z,77.09
2022-08-28T02:40:29.661Z,76.83
2022-08-28T02:40:41.966Z,77.24
2022-08-28T02:40:53.927Z,76.99
2022-08-28T02:41:06.999Z,77.00
2022-08-28T02:41:19.001Z,76.83
2022-08-28T02:41:31.257Z,76.83
2022-08-28T02:41:43.246Z,76.81
2022-08-28T02:41:55.573Z,77.12
2022-08-28T02:42:07.586Z,76.85
2022-08-28T02:42:19.537Z,76.90
2022-08-28T02:42:31.724Z,76.81
2022-08-28T02:42:44.507Z,76.66
2022-08-28T02:42:56.606Z,76.98
2022-08-28T02:43:08.733Z,76.71
2022-08-28T02:43:20.662Z,76.52
2022-08-28T02:43:32.974Z,76.77
2022-08-28T02:43:45.168Z,76.66
2022-08-28T02:43:57.170Z,76.71
2022-08-28T02:44:10.041Z,76.28
2022-08-28T02:44:22.055Z,76.43
2022-08-28T02:44:34.898Z,76.54
2022-08-28T02:44:46.861Z,76.91
2022-08-28T02:44:59.470Z,76.75
2022-08-28T02:45:12.990Z,76.64
2022-08-28T02:45:24.963Z,76.71
2022-08-28T02:45:37.100Z,76.76
2022-08-28T02:45:49.315Z,77.07
2022-08-28T02:46:01.603Z,76.95
2022-08-28T02:46:13.778Z,76.84
2022-08-28T02:46:26.545Z,76.94
2022-08-28T02:46:38.612Z,76.95
2022-08-28T02:46:51.760Z,76.93
2022-08-28T02:47:06.077Z,77.03
2022-08-28T02:47:18.648Z,76.87
2022-08-28T02:47:30.593Z,76.93
2022-08-28T02:47:44.947Z,76.98
2022-08-28T02:47:57.263Z,76.76
2022-08-28T02:48:15.621Z,76.71
2022-08-28T02:48:31.623Z,76.71
2022-08-28T02:48:43.702Z,77.34
2022-08-28T02:48:56.133Z,77.19
2022-08-28T02:49:08.140Z,77.13
2022-08-28T02:49:20.078Z,76.73
2022-08-28T02:49:36.259Z,76.95
2022-08-28T02:49:48.390Z,77.31
2022-08-28T02:50:00.339Z,77.19
2022-08-28T02:50:15.328Z,77.21
2022-08-28T02:50:29.780Z,76.96
2022-08-28T02:50:41.698Z,77.07
2022-08-28T02:50:58.627Z,76.88
2022-08-28T02:51:13.331Z,77.19
2022-08-28T02:51:25.511Z,76.84
2022-08-28T02:51:37.429Z,76.97
2022-08-28T02:51:50.339Z,76.87
2022-08-28T02:52:02.376Z,77.11
2022-08-28T02:52:14.337Z,77.00
2022-08-28T02:52:26.953Z,77.24
2022-08-28T02:52:40.386Z,77.05
2022-08-28T02:52:52.518Z,77.38
2022-08-28T02:53:04.491Z,77.19
2022-08-28T02:53:16.418Z,76.89
2022-08-28T02:53:29.300Z,77.00
2022-08-28T02:53:42.450Z,76.81
2022-08-28T02:53:54.497Z,76.95
2022-08-28T02:54:06.463Z,76.84
2022-08-28T02:54:18.618Z,76.82
2022-08-28T02:54:30.963Z,77.10
2022-08-28T02:54:42.946Z,77.16
2022-08-28T02:54:54.887Z,76.73
2022-08-28T02:55:08.634Z,76.98
2022-08-28T02:55:21.206Z,76.91
2022-08-28T02:55:34.292Z,76.75
2022-08-28T02:55:46.500Z,76.73
2022-08-28T02:55:59.980Z,76.73
2022-08-28T02:56:12.151Z,76.68
2022-08-28T02:56:24.566Z,77.13
2022-08-28T02:56:36.551Z,77.06
2022-08-28T02:56:48.514Z,76.80
2022-08-28T02:57:00.503Z,76.58
2022-08-28T02:57:12.449Z,76.46
2022-08-28T02:57:24.443Z,76.73
2022-08-28T02:57:36.459Z,76.67
2022-08-28T02:57:48.613Z,76.68
2022-08-28T02:58:00.870Z,76.50